Terminal Aerodrome Forecast
Issued by NWS

Current Version | Previous Version | Graphics & Text | Print | Product List | Glossary On
Versions: 1 2 3 4 5 6 7 8 9 10 11 12 13 14 15 16 17 18 19 20 21 22 23 24 25 26 27
913
FTUS41 KPBZ 241722
TAFHLG
TAF
KHLG 241722Z 2418/2518 30010KT P6SM OVC008
     FM242000 29010KT P6SM OVC010
     FM250600 24005KT P6SM BKN010
     FM251200 19005KT P6SM BKN015
     FM251600 21010KT P6SM BKN040=

USA.gov is the U.S. government's official web portal to all federal, state and local government web resources and services.